Time;durP1;ratioP1;P1;durP2;ratioP2;P2;SDS_P1;SDS_P2;PMS_P1;PMS_P2;Temp;Humidity;BMP_temperature;BMP_pressure;BME280_temperature;BME280_humidity;BME280_pressure;Samples;Min_cycle;Max_cycle;Signal;HPM_P1;HPM_P2
2021/10/02 00:47:03;;;;;;;;;;;18.90;61.00;;;;;;4997891;28;20387;-56
2021/10/02 00:49:28;;;;;;;;;;;18.90;61.00;;;;;;4985458;28;19921;-55
2021/10/02 00:51:54;;;;;;;;;;;18.90;61.10;;;;;;5028526;28;19928;-53
2021/10/02 00:54:19;;;;;;;;;;;18.90;61.00;;;;;;5060137;28;19927;-57
2021/10/02 00:56:45;;;;;;;;;;;18.90;61.00;;;;;;5062908;28;20285;-54
2021/10/02 00:59:11;;;;;;;;;;;18.90;61.10;;;;;;5044568;28;19921;-57
2021/10/02 01:01:52;;;;;;;;;;;18.90;61.10;;;;;;5049477;28;19920;-55
2021/10/02 01:04:19;;;;;;;;;;;18.90;61.00;;;;;;5059653;28;19951;-56
2021/10/02 01:06:56;;;;;;;;;;;18.90;61.10;;;;;;5061835;28;19999;-55
2021/10/02 01:09:40;;;;;;;;;;;18.90;61.20;;;;;;5042251;28;19917;-56
2021/10/02 01:12:12;;;;;;;;;;;18.90;61.10;;;;;;5056881;28;20046;-52
2021/10/02 01:14:39;;;;;;;;;;;18.90;61.10;;;;;;5058896;28;20285;-53
2021/10/02 01:17:06;;;;;;;;;;;18.90;61.20;;;;;;5041831;28;20011;-50
2021/10/02 01:19:53;;;;;;;;;;;18.90;61.30;;;;;;5045230;28;19920;-56
2021/10/02 01:22:18;;;;;;;;;;;18.90;61.20;;;;;;5056852;28;19959;-52
2021/10/02 01:24:44;;;;;;;;;;;18.90;61.30;;;;;;5057579;28;19956;-54
2021/10/02 01:27:28;;;;;;;;;;;18.90;61.20;;;;;;5062891;28;19916;-55
2021/10/02 01:29:54;;;;;;;;;;;18.90;61.20;;;;;;5038365;28;19916;-54
2021/10/02 01:32:36;;;;;;;;;;;18.90;61.30;;;;;;5055291;28;19928;-56
2021/10/02 01:35:16;;;;;;;;;;;18.90;61.30;;;;;;5041567;28;19920;-57
2021/10/02 01:48:48;;;;;;;;;;;19.00;61.30;;;;;;5022088;28;19939;-56
2021/10/02 01:51:14;;;;;;;;;;;18.90;61.30;;;;;;5060391;28;19921;-58
2021/10/02 01:53:39;;;;;;;;;;;18.90;61.40;;;;;;5044516;28;19920;-58
2021/10/02 01:56:06;;;;;;;;;;;19.00;61.40;;;;;;5040828;28;19942;-57
2021/10/02 01:58:32;;;;;;;;;;;19.00;61.40;;;;;;5057952;28;19916;-53
2021/10/02 02:00:57;;;;;;;;;;;18.90;61.40;;;;;;5022165;28;19917;-52
2021/10/02 02:03:23;;;;;;;;;;;18.90;61.30;;;;;;5039074;28;19924;-56
2021/10/02 02:05:48;;;;;;;;;;;18.90;61.30;;;;;;5058277;28;19928;-55
2021/10/02 02:08:14;;;;;;;;;;;18.90;61.50;;;;;;5043470;28;20325;-53
2021/10/02 02:10:40;;;;;;;;;;;18.90;61.50;;;;;;5036561;28;20681;-51
2021/10/02 02:13:05;;;;;;;;;;;19.00;61.40;;;;;;5043407;28;19966;-57
2021/10/02 02:15:31;;;;;;;;;;;18.90;61.40;;;;;;5041341;28;20343;-54
2021/10/02 02:17:58;;;;;;;;;;;18.90;61.40;;;;;;5043699;28;19935;-53
2021/10/02 02:20:26;;;;;;;;;;;18.90;61.50;;;;;;5020328;28;19917;-54
2021/10/02 02:22:52;;;;;;;;;;;18.90;61.50;;;;;;5041219;28;19921;-53
2021/10/02 02:25:17;;;;;;;;;;;19.00;61.50;;;;;;5040962;28;19922;-56
2021/10/02 02:27:43;;;;;;;;;;;18.90;61.50;;;;;;5043222;28;19970;-54
2021/10/02 02:30:08;;;;;;;;;;;18.90;61.50;;;;;;5058029;28;20317;-54
2021/10/02 02:32:34;;;;;;;;;;;18.90;61.50;;;;;;5043299;28;20169;-53
2021/10/02 02:34:59;;;;;;;;;;;18.90;61.50;;;;;;5040430;28;20300;-56
2021/10/02 02:37:25;;;;;;;;;;;18.90;61.50;;;;;;5042906;28;19916;-55
2021/10/02 02:39:50;;;;;;;;;;;18.90;61.50;;;;;;5058840;28;19920;-54
2021/10/02 02:42:15;;;;;;;;;;;18.90;61.50;;;;;;5042900;28;19917;-54
2021/10/02 02:44:41;;;;;;;;;;;18.90;61.50;;;;;;5040911;28;20003;-57
2021/10/02 02:47:07;;;;;;;;;;;18.90;61.60;;;;;;5061519;28;19931;-57
2021/10/02 02:49:43;;;;;;;;;;;18.90;61.50;;;;;;5042118;28;20278;-56
2021/10/02 02:52:10;;;;;;;;;;;18.90;61.60;;;;;;5060442;28;19928;-51
2021/10/02 02:54:36;;;;;;;;;;;18.90;61.60;;;;;;5058813;28;20395;-53
2021/10/02 02:57:03;;;;;;;;;;;18.90;61.50;;;;;;5061560;28;19927;-54
2021/10/02 02:59:29;;;;;;;;;;;18.90;61.50;;;;;;5041699;28;19916;-51
2021/10/02 03:01:55;;;;;;;;;;;18.90;61.60;;;;;;5041145;28;19964;-53
2021/10/02 03:04:20;;;;;;;;;;;18.90;61.50;;;;;;5038563;28;19951;-59
2021/10/02 03:06:47;;;;;;;;;;;18.90;61.60;;;;;;5060597;28;19920;-59
2021/10/02 03:09:13;;;;;;;;;;;18.90;61.60;;;;;;5040141;28;20007;-57
2021/10/02 03:11:38;;;;;;;;;;;18.90;61.70;;;;;;5044789;28;19999;-58
2021/10/02 03:14:03;;;;;;;;;;;18.90;61.60;;;;;;5032951;28;20467;-52
2021/10/02 03:16:29;;;;;;;;;;;18.90;61.60;;;;;;5046470;28;19920;-53
2021/10/02 03:18:55;;;;;;;;;;;18.90;61.60;;;;;;5055529;28;19921;-57
2021/10/02 03:21:21;;;;;;;;;;;18.90;61.60;;;;;;5046355;28;19927;-55
2021/10/02 03:23:46;;;;;;;;;;;18.90;61.60;;;;;;5061515;28;19916;-56
2021/10/02 03:26:12;;;;;;;;;;;18.90;61.70;;;;;;5046975;28;19917;-51
2021/10/02 03:28:37;;;;;;;;;;;18.90;61.70;;;;;;5046301;28;19916;-56
2021/10/02 03:31:03;;;;;;;;;;;18.90;61.70;;;;;;5043371;28;19948;-55
2021/10/02 03:33:28;;;;;;;;;;;18.90;61.70;;;;;;5064682;28;19966;-51
2021/10/02 03:35:54;;;;;;;;;;;18.90;61.70;;;;;;5061889;28;20027;-57
2021/10/02 03:38:19;;;;;;;;;;;18.90;61.70;;;;;;5046388;28;19916;-53
2021/10/02 03:40:45;;;;;;;;;;;18.90;61.80;;;;;;5043092;28;19916;-51
2021/10/02 03:43:10;;;;;;;;;;;18.90;61.80;;;;;;5046566;28;20330;-54
2021/10/02 03:45:38;;;;;;;;;;;18.90;61.70;;;;;;5042837;28;19917;-52
2021/10/02 03:48:04;;;;;;;;;;;18.90;61.80;;;;;;5062028;28;20041;-53
2021/10/02 03:50:30;;;;;;;;;;;18.90;61.70;;;;;;5054979;28;20019;-53
2021/10/02 03:52:56;;;;;;;;;;;18.90;61.70;;;;;;5063270;28;19920;-54
2021/10/02 03:55:21;;;;;;;;;;;18.90;61.70;;;;;;5062274;28;19920;-56
2021/10/02 03:57:47;;;;;;;;;;;18.90;61.70;;;;;;5064016;28;19916;-58
2021/10/02 04:00:12;;;;;;;;;;;19.00;61.80;;;;;;5059171;28;20397;-52
2021/10/02 04:02:38;;;;;;;;;;;18.90;61.80;;;;;;5046347;28;19920;-54
2021/10/02 04:05:03;;;;;;;;;;;18.90;61.80;;;;;;5060264;28;19947;-58
2021/10/02 04:07:28;;;;;;;;;;;18.90;61.80;;;;;;5063705;28;19955;-52
2021/10/02 04:09:54;;;;;;;;;;;18.90;61.70;;;;;;5061145;28;19921;-57
2021/10/02 04:12:20;;;;;;;;;;;18.90;61.80;;;;;;5063861;28;19916;-57
2021/10/02 04:14:47;;;;;;;;;;;18.90;61.80;;;;;;5043170;28;19917;-52
2021/10/02 04:17:13;;;;;;;;;;;18.90;61.90;;;;;;5063702;28;19920;-53
2021/10/02 04:19:39;;;;;;;;;;;18.90;61.90;;;;;;5059984;28;20325;-55
2021/10/02 04:22:05;;;;;;;;;;;18.90;61.90;;;;;;5062171;28;19916;-53
2021/10/02 04:24:30;;;;;;;;;;;18.90;61.80;;;;;;5044646;28;19975;-56
2021/10/02 04:26:58;;;;;;;;;;;18.90;61.80;;;;;;5063511;28;20031;-53
2021/10/02 04:29:27;;;;;;;;;;;18.90;61.90;;;;;;5062299;28;19916;-51
2021/10/02 04:31:53;;;;;;;;;;;18.90;61.90;;;;;;5063606;28;19970;-55
2021/10/02 04:34:18;;;;;;;;;;;18.90;61.90;;;;;;5044788;28;20650;-51
2021/10/02 04:36:44;;;;;;;;;;;18.90;61.90;;;;;;5063858;28;19985;-53
2021/10/02 04:39:09;;;;;;;;;;;18.90;61.90;;;;;;5062374;28;21847;-52
2021/10/02 04:41:35;;;;;;;;;;;18.90;61.90;;;;;;5063655;28;19917;-57
2021/10/02 04:44:00;;;;;;;;;;;18.90;62.00;;;;;;5063197;28;20317;-50
2021/10/02 04:46:26;;;;;;;;;;;18.90;61.90;;;;;;5045226;28;19942;-54
2021/10/02 04:48:52;;;;;;;;;;;18.90;61.90;;;;;;5062629;28;19921;-59
2021/10/02 04:51:18;;;;;;;;;;;18.90;61.90;;;;;;5063014;28;19924;-55
2021/10/02 04:53:43;;;;;;;;;;;18.90;62.10;;;;;;5045576;28;20400;-56
2021/10/02 04:56:11;;;;;;;;;;;18.90;61.90;;;;;;5063745;28;19927;-54
2021/10/02 04:58:36;;;;;;;;;;;18.90;61.90;;;;;;5062070;28;20397;-55
2021/10/02 05:01:02;;;;;;;;;;;18.90;62.00;;;;;;5045193;28;20011;-53
2021/10/02 05:03:28;;;;;;;;;;;18.90;62.00;;;;;;5044670;28;19920;-51
2021/10/02 05:05:53;;;;;;;;;;;18.90;62.00;;;;;;5062961;28;19986;-58
2021/10/02 05:08:18;;;;;;;;;;;18.90;62.00;;;;;;5062000;28;19924;-50
2021/10/02 05:10:44;;;;;;;;;;;18.90;62.00;;;;;;5063546;28;20298;-51
2021/10/02 05:13:09;;;;;;;;;;;18.90;62.00;;;;;;5044845;28;20011;-57
2021/10/02 05:15:35;;;;;;;;;;;18.90;62.00;;;;;;5062679;28;19928;-54
2021/10/02 05:18:00;;;;;;;;;;;18.90;62.10;;;;;;5044799;28;19931;-51
2021/10/02 05:20:26;;;;;;;;;;;18.90;62.10;;;;;;5061686;28;19923;-55
2021/10/02 05:22:51;;;;;;;;;;;18.90;62.00;;;;;;5062280;28;20447;-50
2021/10/02 05:25:17;;;;;;;;;;;18.90;62.00;;;;;;5063018;28;19916;-57
2021/10/02 05:27:42;;;;;;;;;;;18.80;62.00;;;;;;5063231;28;19920;-53
2021/10/02 05:30:08;;;;;;;;;;;18.90;62.20;;;;;;5061928;28;20274;-52
2021/10/02 05:32:33;;;;;;;;;;;18.90;62.10;;;;;;5061839;28;19916;-56
2021/10/02 05:34:59;;;;;;;;;;;18.90;62.10;;;;;;5061531;28;19932;-52
2021/10/02 05:37:24;;;;;;;;;;;18.90;62.10;;;;;;5061854;28;19920;-54
2021/10/02 05:39:50;;;;;;;;;;;18.80;62.20;;;;;;5061737;28;20336;-59
2021/10/02 05:42:15;;;;;;;;;;;18.90;62.20;;;;;;5061636;28;19924;-54
2021/10/02 05:44:41;;;;;;;;;;;18.90;62.20;;;;;;5062799;28;19928;-56
2021/10/02 05:47:06;;;;;;;;;;;18.90;62.10;;;;;;5061566;28;19920;-56
2021/10/02 05:49:32;;;;;;;;;;;18.90;62.20;;;;;;5044279;28;20640;-52
2021/10/02 05:51:57;;;;;;;;;;;18.90;62.10;;;;;;5058664;28;19927;-53
2021/10/02 05:54:23;;;;;;;;;;;18.90;62.20;;;;;;5061511;28;20333;-55
2021/10/02 05:56:48;;;;;;;;;;;18.90;62.20;;;;;;5061310;28;19920;-51
2021/10/02 05:59:14;;;;;;;;;;;18.90;62.30;;;;;;5061658;28;19924;-51
2021/10/02 06:01:39;;;;;;;;;;;18.90;62.30;;;;;;5061867;28;19950;-52
2021/10/02 06:04:04;;;;;;;;;;;18.80;62.30;;;;;;5062188;28;19925;-51
2021/10/02 06:06:30;;;;;;;;;;;18.90;62.40;;;;;;5060966;28;19916;-51
2021/10/02 06:08:55;;;;;;;;;;;18.80;62.30;;;;;;5058724;28;20396;-55
2021/10/02 06:11:21;;;;;;;;;;;18.90;62.30;;;;;;5044030;28;19917;-53
2021/10/02 06:13:47;;;;;;;;;;;18.80;62.30;;;;;;5061347;28;20000;-50
2021/10/02 06:16:13;;;;;;;;;;;18.80;62.30;;;;;;5062128;28;19920;-50
2021/10/02 06:18:38;;;;;;;;;;;18.80;62.30;;;;;;5060885;28;19936;-52
2021/10/02 06:21:06;;;;;;;;;;;18.90;62.30;;;;;;5061493;28;19920;-54
2021/10/02 06:23:33;;;;;;;;;;;18.80;62.30;;;;;;5059609;28;21271;-57
2021/10/02 06:25:59;;;;;;;;;;;18.80;62.30;;;;;;5061180;28;19916;-50
2021/10/02 06:28:24;;;;;;;;;;;18.90;62.40;;;;;;5061277;28;19920;-55
2021/10/02 06:30:50;;;;;;;;;;;18.90;62.40;;;;;;5056663;28;20381;-58
2021/10/02 06:33:15;;;;;;;;;;;18.80;62.20;;;;;;5061525;28;19923;-55
2021/10/02 06:35:40;;;;;;;;;;;18.90;62.30;;;;;;5061417;28;19924;-56
2021/10/02 06:38:06;;;;;;;;;;;18.80;62.30;;;;;;5061139;28;19935;-56
2021/10/02 06:40:31;;;;;;;;;;;18.90;62.40;;;;;;5061507;28;19962;-53
2021/10/02 06:42:57;;;;;;;;;;;18.90;62.50;;;;;;5061566;28;19916;-57
2021/10/02 06:45:22;;;;;;;;;;;18.90;62.60;;;;;;5060973;28;20027;-56
2021/10/02 06:47:48;;;;;;;;;;;18.80;62.60;;;;;;5063390;28;19922;-52
2021/10/02 06:50:13;;;;;;;;;;;18.90;62.80;;;;;;5065621;28;19923;-56
2021/10/02 06:52:39;;;;;;;;;;;18.90;62.80;;;;;;5070875;22;19937;-53
2021/10/02 06:55:06;;;;;;;;;;;18.90;62.90;;;;;;5060929;28;19920;-55
2021/10/02 06:57:32;;;;;;;;;;;18.90;62.90;;;;;;5048773;28;19952;-54
2021/10/02 06:59:57;;;;;;;;;;;18.90;63.00;;;;;;5054898;28;19952;-55
2021/10/02 07:02:23;;;;;;;;;;;18.90;63.30;;;;;;5062337;28;20335;-56
2021/10/02 07:04:49;;;;;;;;;;;18.90;63.40;;;;;;5062149;28;19929;-54
2021/10/02 07:07:15;;;;;;;;;;;18.80;63.50;;;;;;5063723;28;20015;-55
2021/10/02 07:09:40;;;;;;;;;;;18.90;63.70;;;;;;5065066;28;20611;-55
2021/10/02 07:12:06;;;;;;;;;;;18.90;64.20;;;;;;5063802;28;19938;-56
2021/10/02 07:14:31;;;;;;;;;;;18.90;64.30;;;;;;5064103;28;20266;-57
2021/10/02 07:16:56;;;;;;;;;;;18.90;64.30;;;;;;5064264;28;19921;-57
2021/10/02 07:19:22;;;;;;;;;;;18.90;64.10;;;;;;5063714;28;19924;-55
2021/10/02 07:21:47;;;;;;;;;;;18.90;63.90;;;;;;5046970;28;19916;-55
2021/10/02 07:24:16;;;;;;;;;;;18.90;63.60;;;;;;5064766;28;19922;-57
2021/10/02 07:26:42;;;;;;;;;;;18.90;63.50;;;;;;5064899;28;19920;-55
2021/10/02 07:29:07;;;;;;;;;;;18.90;63.40;;;;;;5063391;28;20734;-56
2021/10/02 07:31:33;;;;;;;;;;;18.80;63.20;;;;;;5065099;28;20480;-56
2021/10/02 07:33:58;;;;;;;;;;;18.80;63.00;;;;;;5063944;28;20305;-56
2021/10/02 07:36:23;;;;;;;;;;;18.90;62.90;;;;;;5064319;28;19927;-55
2021/10/02 07:38:49;;;;;;;;;;;18.90;62.80;;;;;;5062888;28;19921;-55
2021/10/02 07:41:15;;;;;;;;;;;18.90;62.60;;;;;;5064572;28;19917;-53
2021/10/02 07:43:41;;;;;;;;;;;18.80;62.50;;;;;;5064413;28;19921;-53
2021/10/02 07:46:07;;;;;;;;;;;18.80;62.50;;;;;;5064754;28;20003;-56
2021/10/02 07:48:33;;;;;;;;;;;18.90;62.50;;;;;;5062806;28;20548;-54
2021/10/02 07:50:58;;;;;;;;;;;18.80;62.40;;;;;;5064317;28;19931;-54
2021/10/02 07:53:24;;;;;;;;;;;18.80;62.40;;;;;;5063775;28;20580;-55
2021/10/02 07:55:51;;;;;;;;;;;18.80;62.40;;;;;;5064805;28;19920;-55
2021/10/02 07:58:19;;;;;;;;;;;18.80;62.40;;;;;;5062878;28;19932;-63
2021/10/02 08:00:44;;;;;;;;;;;18.80;62.40;;;;;;5064594;28;20579;-53
2021/10/02 08:03:10;;;;;;;;;;;18.80;62.30;;;;;;5063567;28;19927;-56
2021/10/02 08:05:35;;;;;;;;;;;18.80;62.30;;;;;;5064068;28;20381;-56
2021/10/02 08:08:01;;;;;;;;;;;18.80;62.40;;;;;;5064135;28;19917;-56
2021/10/02 08:10:28;;;;;;;;;;;18.80;62.30;;;;;;5063923;28;19924;-57
2021/10/02 08:12:53;;;;;;;;;;;18.80;62.40;;;;;;5060026;28;20023;-53
2021/10/02 08:15:19;;;;;;;;;;;18.80;62.40;;;;;;5064161;28;20015;-54
2021/10/02 08:17:45;;;;;;;;;;;18.80;62.40;;;;;;5064460;28;20350;-57
2021/10/02 08:20:11;;;;;;;;;;;18.80;62.40;;;;;;5063345;28;19920;-56
2021/10/02 08:22:41;;;;;;;;;;;18.80;62.30;;;;;;5064025;28;19925;-56
2021/10/02 08:25:06;;;;;;;;;;;18.80;62.60;;;;;;5063507;28;19993;-57
2021/10/02 08:27:32;;;;;;;;;;;18.80;62.80;;;;;;5063464;28;19921;-55
2021/10/02 08:29:57;;;;;;;;;;;18.80;63.20;;;;;;5045748;28;19917;-56
2021/10/02 08:32:23;;;;;;;;;;;18.80;63.20;;;;;;5045579;28;19925;-55
2021/10/02 08:34:48;;;;;;;;;;;18.80;63.40;;;;;;5045801;28;19920;-55
2021/10/02 08:37:14;;;;;;;;;;;18.80;64.40;;;;;;5062564;28;20345;-55
2021/10/02 08:39:39;;;;;;;;;;;18.80;64.90;;;;;;5063144;28;19978;-55
2021/10/02 08:42:05;;;;;;;;;;;18.80;65.10;;;;;;5062771;28;19913;-52
2021/10/02 08:44:30;;;;;;;;;;;18.80;65.00;;;;;;5045553;28;20396;-55
2021/10/02 08:46:56;;;;;;;;;;;18.80;64.30;;;;;;5046091;28;20379;-55
2021/10/02 08:49:24;;;;;;;;;;;18.80;64.00;;;;;;5029206;28;19924;-56
2021/10/02 08:51:49;;;;;;;;;;;18.90;63.60;;;;;;5063545;28;20415;-56
2021/10/02 08:54:17;;;;;;;;;;;18.80;63.20;;;;;;5062857;28;19920;-53
2021/10/02 08:56:42;;;;;;;;;;;18.90;63.00;;;;;;5062265;28;20002;-52
2021/10/02 08:59:08;;;;;;;;;;;18.90;63.00;;;;;;5043974;28;19959;-55
2021/10/02 09:01:33;;;;;;;;;;;18.80;62.90;;;;;;5042328;28;20388;-52
2021/10/02 09:03:58;;;;;;;;;;;18.80;62.90;;;;;;5044533;28;19924;-53
2021/10/02 09:06:24;;;;;;;;;;;18.80;63.00;;;;;;5062591;28;19925;-56
2021/10/02 09:08:49;;;;;;;;;;;18.80;62.90;;;;;;5061749;28;19912;-55
2021/10/02 09:11:15;;;;;;;;;;;18.80;63.10;;;;;;5058261;28;19917;-55
2021/10/02 09:13:40;;;;;;;;;;;18.70;63.20;;;;;;5062101;28;19927;-56
2021/10/02 09:16:06;;;;;;;;;;;18.80;63.30;;;;;;5061154;28;20501;-56
2021/10/02 09:18:31;;;;;;;;;;;18.80;63.40;;;;;;5060606;28;19959;-56
2021/10/02 09:21:00;;;;;;;;;;;18.80;63.40;;;;;;5044008;28;19921;-55
2021/10/02 09:23:26;;;;;;;;;;;18.80;63.10;;;;;;5062084;28;19943;-56
2021/10/02 09:25:52;;;;;;;;;;;18.80;63.40;;;;;;5060382;28;20429;-56
2021/10/02 09:28:17;;;;;;;;;;;18.80;64.10;;;;;;5061335;28;19920;-54
2021/10/02 09:30:43;;;;;;;;;;;18.90;62.50;;;;;;5062616;28;19925;-54
2021/10/02 09:33:10;;;;;;;;;;;18.80;62.30;;;;;;5062407;28;19917;-56
2021/10/02 09:35:36;;;;;;;;;;;18.80;61.90;;;;;;5044505;28;19944;-56
2021/10/02 09:38:02;;;;;;;;;;;18.80;62.20;;;;;;5062992;28;19959;-52
2021/10/02 09:40:28;;;;;;;;;;;18.80;62.20;;;;;;5062118;28;19967;-57
2021/10/02 09:42:57;;;;;;;;;;;18.80;62.60;;;;;;5062398;28;20511;-55
2021/10/02 09:45:29;;;;;;;;;;;18.80;63.00;;;;;;5041083;28;20596;-53
2021/10/02 09:47:55;;;;;;;;;;;18.80;63.10;;;;;;5062424;28;20297;-55
2021/10/02 09:50:25;;;;;;;;;;;18.80;63.00;;;;;;5060961;28;20378;-56
2021/10/02 09:52:54;;;;;;;;;;;18.80;63.00;;;;;;5061737;28;19920;-56
2021/10/02 09:55:22;;;;;;;;;;;18.80;62.90;;;;;;5044799;28;19931;-56
2021/10/02 09:57:48;;;;;;;;;;;18.80;63.20;;;;;;5062042;28;19919;-57
2021/10/02 10:00:15;;;;;;;;;;;18.80;63.20;;;;;;5060622;28;19916;-55
2021/10/02 10:02:41;;;;;;;;;;;18.80;63.30;;;;;;5042202;28;20027;-56
2021/10/02 10:05:06;;;;;;;;;;;18.80;63.40;;;;;;5060725;28;20015;-53
2021/10/02 10:07:32;;;;;;;;;;;18.80;63.20;;;;;;5061193;28;19935;-55
2021/10/02 10:10:06;;;;;;;;;;;18.80;63.30;;;;;;5060371;28;19916;-55
2021/10/02 10:12:33;;;;;;;;;;;18.80;63.50;;;;;;5061553;28;20038;-56
2021/10/02 10:14:58;;;;;;;;;;;18.80;63.40;;;;;;5061073;28;19917;-57
2021/10/02 10:17:24;;;;;;;;;;;18.80;62.70;;;;;;5061019;28;20324;-55
2021/10/02 10:20:03;;;;;;;;;;;18.80;63.30;;;;;;5043304;28;19967;-55
2021/10/02 10:22:29;;;;;;;;;;;18.80;63.50;;;;;;5056908;28;19920;-55
2021/10/02 10:25:04;;;;;;;;;;;18.80;63.50;;;;;;5043200;28;20459;-56
2021/10/02 10:27:36;;;;;;;;;;;18.80;63.50;;;;;;5055519;28;19917;-56
2021/10/02 10:30:05;;;;;;;;;;;18.80;63.40;;;;;;5060260;28;19943;-55
2021/10/02 10:32:31;;;;;;;;;;;18.80;63.30;;;;;;5040290;28;19951;-55
2021/10/02 10:34:56;;;;;;;;;;;18.70;63.30;;;;;;5043473;28;19948;-55
2021/10/02 10:37:22;;;;;;;;;;;18.80;63.50;;;;;;5060513;28;19920;-55
2021/10/02 10:39:47;;;;;;;;;;;18.80;63.50;;;;;;5043150;28;19932;-59
2021/10/02 10:42:13;;;;;;;;;;;18.80;63.60;;;;;;5061813;28;19943;-53
2021/10/02 10:44:38;;;;;;;;;;;18.80;63.70;;;;;;5043850;28;19965;-55
2021/10/02 10:47:04;;;;;;;;;;;18.80;63.50;;;;;;5043633;28;19913;-56
2021/10/02 10:49:29;;;;;;;;;;;18.80;63.60;;;;;;5061105;28;20313;-56
2021/10/02 10:51:58;;;;;;;;;;;18.80;63.60;;;;;;5042521;28;19920;-55
2021/10/02 10:54:23;;;;;;;;;;;18.80;63.60;;;;;;5061741;28;19912;-56
2021/10/02 10:56:49;;;;;;;;;;;18.80;63.60;;;;;;5061516;28;20430;-56
2021/10/02 10:59:18;;;;;;;;;;;18.80;63.60;;;;;;5061212;28;19919;-56
2021/10/02 11:01:44;;;;;;;;;;;18.80;63.20;;;;;;5044268;28;19913;-54
2021/10/02 11:04:45;;;;;;;;;;;18.80;63.50;;;;;;5042965;28;19919;-56
2021/10/02 11:07:14;;;;;;;;;;;18.80;63.50;;;;;;4979505;28;19922;-54
2021/10/02 11:09:40;;;;;;;;;;;18.90;63.40;;;;;;5046249;28;19920;-54
2021/10/02 11:12:09;;;;;;;;;;;18.90;63.40;;;;;;5060886;28;20441;-54
2021/10/02 11:14:47;;;;;;;;;;;18.90;63.60;;;;;;5059483;28;20095;-54
2021/10/02 11:17:32;;;;;;;;;;;18.90;63.30;;;;;;5061012;28;19921;-53
2021/10/02 11:19:58;;;;;;;;;;;19.00;63.60;;;;;;5060192;28;20289;-55
2021/10/02 11:23:08;;;;;;;;;;;18.90;64.10;;;;;;5061300;28;19916;-56
2021/10/02 11:25:34;;;;;;;;;;;18.90;64.40;;;;;;5057403;28;20010;-53
2021/10/02 11:28:18;;;;;;;;;;;18.80;64.70;;;;;;5060826;28;19969;-53
2021/10/02 11:30:47;;;;;;;;;;;18.90;65.30;;;;;;5061836;28;19912;-56
2021/10/02 11:33:28;;;;;;;;;;;18.80;65.70;;;;;;5062425;28;20373;-56
2021/10/02 11:35:54;;;;;;;;;;;18.80;66.10;;;;;;5063094;28;19920;-56
2021/10/02 11:38:34;;;;;;;;;;;18.80;66.00;;;;;;5045664;28;20317;-57
2021/10/02 11:41:00;;;;;;;;;;;18.90;66.50;;;;;;5064898;28;19913;-55
2021/10/02 11:43:26;;;;;;;;;;;18.80;66.60;;;;;;5063839;28;19920;-55
2021/10/02 11:45:54;;;;;;;;;;;18.90;66.30;;;;;;5064379;28;20285;-56
2021/10/02 11:48:21;;;;;;;;;;;18.90;66.70;;;;;;5063218;28;19942;-56
2021/10/02 11:50:47;;;;;;;;;;;18.90;66.80;;;;;;5046621;28;20298;-57
2021/10/02 11:53:14;;;;;;;;;;;18.80;67.30;;;;;;5047312;28;19920;-56
2021/10/02 11:55:42;;;;;;;;;;;18.80;67.60;;;;;;5061018;28;19920;-53
2021/10/02 11:58:08;;;;;;;;;;;18.90;67.70;;;;;;5063437;28;19952;-54
2021/10/02 12:00:38;;;;;;;;;;;18.90;68.60;;;;;;5063298;28;19920;-56
2021/10/02 12:03:03;;;;;;;;;;;18.90;69.00;;;;;;5045857;28;19966;-55
2021/10/02 12:05:28;;;;;;;;;;;18.90;69.60;;;;;;5064267;28;19912;-57
2021/10/02 12:07:55;;;;;;;;;;;18.90;69.30;;;;;;5064834;28;19912;-56
2021/10/02 12:10:20;;;;;;;;;;;18.90;69.60;;;;;;5063705;28;19920;-54
2021/10/02 12:12:46;;;;;;;;;;;18.90;69.50;;;;;;5065439;28;19916;-56
2021/10/02 12:15:11;;;;;;;;;;;18.90;69.50;;;;;;5064548;28;19965;-57
2021/10/02 12:17:51;;;;;;;;;;;18.90;69.50;;;;;;5064153;28;20564;-55
2021/10/02 12:20:16;;;;;;;;;;;19.00;69.30;;;;;;5045846;28;19991;-57
2021/10/02 12:22:42;;;;;;;;;;;18.90;69.00;;;;;;5064112;28;20011;-55
2021/10/02 12:25:07;;;;;;;;;;;19.00;69.20;;;;;;5063929;28;22687;-56
2021/10/02 12:27:33;;;;;;;;;;;19.00;68.50;;;;;;5063947;28;19961;-56
2021/10/02 12:29:58;;;;;;;;;;;19.00;68.60;;;;;;5045751;28;19920;-53
2021/10/02 12:32:24;;;;;;;;;;;19.00;67.80;;;;;;5064360;28;19912;-54
2021/10/02 12:34:53;;;;;;;;;;;19.00;66.70;;;;;;5046660;28;19916;-57
2021/10/02 12:37:20;;;;;;;;;;;19.00;66.50;;;;;;5063129;28;20523;-56
2021/10/02 12:39:46;;;;;;;;;;;19.00;65.90;;;;;;5062964;28;19932;-55
2021/10/02 12:42:13;;;;;;;;;;;19.00;66.00;;;;;;5045591;28;19983;-57
2021/10/02 12:44:44;;;;;;;;;;;19.00;66.30;;;;;;5062407;28;20034;-55
2021/10/02 12:47:10;;;;;;;;;;;19.00;66.30;;;;;;5064400;28;19951;-56
2021/10/02 12:49:45;;;;;;;;;;;19.10;65.90;;;;;;5062850;28;19964;-53
2021/10/02 12:52:11;;;;;;;;;;;19.00;66.00;;;;;;5063370;28;19925;-56
2021/10/02 12:54:36;;;;;;;;;;;19.00;65.80;;;;;;5061949;28;19990;-56
2021/10/02 12:57:07;;;;;;;;;;;19.00;65.40;;;;;;5044561;28;19920;-56
2021/10/02 12:59:45;;;;;;;;;;;19.10;64.90;;;;;;5060487;28;19921;-56
2021/10/02 13:02:11;;;;;;;;;;;19.10;64.30;;;;;;5059745;28;19927;-57
2021/10/02 13:04:36;;;;;;;;;;;19.10;64.40;;;;;;5062919;28;19920;-54
2021/10/02 13:07:02;;;;;;;;;;;19.10;64.10;;;;;;5062773;28;20007;-55
2021/10/02 13:09:27;;;;;;;;;;;19.10;63.50;;;;;;5062488;28;20282;-56
2021/10/02 13:11:53;;;;;;;;;;;19.10;63.10;;;;;;5062735;28;19959;-57
2021/10/02 13:14:32;;;;;;;;;;;19.10;62.90;;;;;;5062696;28;19942;-59
2021/10/02 13:16:58;;;;;;;;;;;19.10;62.80;;;;;;5062863;28;19921;-56
2021/10/02 13:19:27;;;;;;;;;;;19.10;61.80;;;;;;5062115;28;20033;-55
2021/10/02 13:22:11;;;;;;;;;;;19.20;61.60;;;;;;5062783;28;19917;-57
2021/10/02 13:24:37;;;;;;;;;;;19.10;61.70;;;;;;5043545;28;19920;-57
2021/10/02 13:27:09;;;;;;;;;;;19.10;61.70;;;;;;5044145;28;20137;-57
2021/10/02 13:29:35;;;;;;;;;;;19.10;61.40;;;;;;5062099;28;19952;-53
2021/10/02 13:32:13;;;;;;;;;;;19.10;61.80;;;;;;5063243;28;20382;-56
2021/10/02 13:34:49;;;;;;;;;;;19.10;60.70;;;;;;5057635;28;19947;-57
2021/10/02 13:37:21;;;;;;;;;;;19.10;60.40;;;;;;5062864;28;20654;-54
2021/10/02 13:39:46;;;;;;;;;;;19.10;60.50;;;;;;5062364;28;19912;-56
2021/10/02 13:42:13;;;;;;;;;;;19.10;60.70;;;;;;5045387;28;19916;-55
2021/10/02 13:44:39;;;;;;;;;;;19.10;60.90;;;;;;5045253;28;20874;-55
2021/10/02 13:47:05;;;;;;;;;;;19.10;60.80;;;;;;5062920;28;19912;-56
2021/10/02 13:49:31;;;;;;;;;;;19.10;60.70;;;;;;5062162;28;19919;-56
2021/10/02 13:51:56;;;;;;;;;;;19.10;60.30;;;;;;5044931;28;19924;-56
2021/10/02 13:54:22;;;;;;;;;;;19.10;60.60;;;;;;5062251;28;20603;-55
2021/10/02 13:56:47;;;;;;;;;;;19.10;60.60;;;;;;5061782;28;19924;-57
2021/10/02 13:59:13;;;;;;;;;;;19.10;60.70;;;;;;5060704;28;20436;-54
2021/10/02 14:01:38;;;;;;;;;;;19.10;60.80;;;;;;5061844;28;21447;-56
2021/10/02 14:04:04;;;;;;;;;;;19.10;60.40;;;;;;5043989;28;19921;-57
2021/10/02 14:06:30;;;;;;;;;;;19.10;60.70;;;;;;5061992;28;20409;-57
2021/10/02 14:08:57;;;;;;;;;;;19.10;60.30;;;;;;5061522;28;19999;-57
2021/10/02 14:11:22;;;;;;;;;;;19.10;60.70;;;;;;5043784;28;19971;-57
2021/10/02 14:13:47;;;;;;;;;;;19.10;60.70;;;;;;5063122;28;19966;-54
2021/10/02 14:16:13;;;;;;;;;;;19.10;60.50;;;;;;5062119;28;19921;-55
2021/10/02 14:18:39;;;;;;;;;;;19.20;61.00;;;;;;5043274;28;19948;-56
2021/10/02 14:21:04;;;;;;;;;;;19.10;60.60;;;;;;5061694;28;19924;-54
2021/10/02 14:23:29;;;;;;;;;;;19.20;59.90;;;;;;5062150;28;20292;-55
2021/10/02 14:25:55;;;;;;;;;;;19.20;60.40;;;;;;5061832;28;19923;-57
2021/10/02 14:28:20;;;;;;;;;;;19.20;59.90;;;;;;5061316;28;19917;-56
2021/10/02 14:30:46;;;;;;;;;;;19.20;60.00;;;;;;5061929;28;20003;-56
2021/10/02 14:33:11;;;;;;;;;;;19.20;60.30;;;;;;5061806;28;20377;-57
2021/10/02 14:35:37;;;;;;;;;;;19.20;60.40;;;;;;5061569;28;19969;-56
2021/10/02 14:38:02;;;;;;;;;;;19.20;59.90;;;;;;5060753;28;19947;-55
2021/10/02 14:40:28;;;;;;;;;;;19.20;60.10;;;;;;5060305;28;20693;-56
2021/10/02 14:42:53;;;;;;;;;;;19.20;60.40;;;;;;5027220;28;20023;-56
2021/10/02 14:45:20;;;;;;;;;;;19.20;60.30;;;;;;5043566;28;19916;-55
2021/10/02 14:47:46;;;;;;;;;;;19.20;60.30;;;;;;5061528;28;19943;-53
2021/10/02 14:50:12;;;;;;;;;;;19.20;60.60;;;;;;5060063;28;20550;-53
2021/10/02 14:52:37;;;;;;;;;;;19.20;60.70;;;;;;5060845;28;19920;-56
2021/10/02 14:55:07;;;;;;;;;;;19.20;60.90;;;;;;5060747;28;19939;-52
2021/10/02 14:57:32;;;;;;;;;;;19.20;60.30;;;;;;5061317;28;19999;-57
2021/10/02 14:59:58;;;;;;;;;;;19.20;60.70;;;;;;5061522;28;20016;-54
2021/10/02 15:02:24;;;;;;;;;;;19.20;60.60;;;;;;5044124;28;19958;-56
2021/10/02 15:04:50;;;;;;;;;;;19.20;60.40;;;;;;5061706;28;19923;-58
2021/10/02 15:07:15;;;;;;;;;;;19.20;60.50;;;;;;5044264;28;19989;-55
2021/10/02 15:09:41;;;;;;;;;;;19.20;60.50;;;;;;5046890;28;19916;-55
2021/10/02 15:12:06;;;;;;;;;;;19.20;60.20;;;;;;5065237;28;19916;-57